Terminal Aerodrome Forecast
Issued by NWS Missoula, MT

Home | Current Version | Previous Version | Text Only | Print | Product List | Glossary On
Versions: 1 2 3 4 5 6 7 8 9 10 11 12 13
140
FTUS45 KMSO 241723
TAFMSO
TAF
KMSO 241723Z 2418/2518 VRB03KT P6SM VCSH SCT015 OVC040
     FM242100 30008KT P6SM -SHRA BKN050
     FM250300 30005KT P6SM FEW050 BKN080=

USA.gov is the U.S. government's official web portal to all federal, state and local government web resources and services.